Time;durP1;ratioP1;P1;durP2;ratioP2;P2;SDS_P1;SDS_P2;PMS_P1;PMS_P2;Temp;Humidity;BMP_temperature;BMP_pressure;BME280_temperature;BME280_humidity;BME280_pressure;Samples;Min_cycle;Max_cycle;Signal;HPM_P1;HPM_P2
2021/04/19 00:01:13;;;;;;;18.60;16.90;;;;;;;;;;5004125;28;20250;-46
2021/04/19 00:03:38;;;;;;;20.97;19.07;;;;;;;;;;5008283;28;20166;-47
2021/04/19 00:06:03;;;;;;;20.48;18.58;;;;;;;;;;5006943;28;20173;-47
2021/04/19 00:08:28;;;;;;;22.40;20.40;;;;;;;;;;5003301;28;20254;-47
2021/04/19 00:10:53;;;;;;;22.63;20.52;;;;;;;;;;4991727;28;20166;-47
2021/04/19 00:13:19;;;;;;;22.33;20.20;;;;;;;;;;4996493;28;20392;-51
2021/04/19 00:15:44;;;;;;;22.60;20.57;;;;;;;;;;5011569;28;20684;-46
2021/04/19 00:18:09;;;;;;;22.47;20.17;;;;;;;;;;5008586;28;20231;-46
2021/04/19 00:20:34;;;;;;;20.10;18.30;;;;;;;;;;5005582;28;20249;-46
2021/04/19 00:22:59;;;;;;;19.73;17.93;;;;;;;;;;4997455;28;20277;-46
2021/04/19 00:25:25;;;;;;;18.75;17.00;;;;;;;;;;4999206;28;20183;-47
2021/04/19 00:27:50;;;;;;;20.80;18.70;;;;;;;;;;5010505;28;20181;-47
2021/04/19 00:30:16;;;;;;;19.37;17.57;;;;;;;;;;5010551;28;20627;-47
2021/04/19 00:32:41;;;;;;;21.43;19.37;;;;;;;;;;5006011;28;20550;-47
2021/04/19 00:35:06;;;;;;;22.07;19.87;;;;;;;;;;5011416;28;20226;-47
2021/04/19 00:37:32;;;;;;;19.07;17.23;;;;;;;;;;5011341;28;20176;-48
2021/04/19 00:39:57;;;;;;;20.37;18.47;;;;;;;;;;5011488;28;20629;-47
2021/04/19 00:42:22;;;;;;;22.27;20.17;;;;;;;;;;5008637;28;20181;-47
2021/04/19 00:44:47;;;;;;;21.60;19.40;;;;;;;;;;4997412;28;20500;-48
2021/04/19 00:47:13;;;;;;;23.30;21.20;;;;;;;;;;4999069;28;20278;-48
2021/04/19 00:49:38;;;;;;;23.07;20.77;;;;;;;;;;5010885;28;20594;-47
2021/04/19 00:52:04;;;;;;;20.97;18.87;;;;;;;;;;4996668;28;20225;-47
2021/04/19 00:54:30;;;;;;;22.20;20.10;;;;;;;;;;4994109;28;20212;-48
2021/04/19 00:56:55;;;;;;;22.67;20.37;;;;;;;;;;4995732;28;20263;-48
2021/04/19 00:59:20;;;;;;;22.80;20.70;;;;;;;;;;5001070;28;20700;-48
2021/04/19 01:01:45;;;;;;;22.95;20.75;;;;;;;;;;5010218;28;20262;-47
2021/04/19 01:04:11;;;;;;;21.40;19.40;;;;;;;;;;5003979;28;20178;-47
2021/04/19 01:06:36;;;;;;;21.70;19.60;;;;;;;;;;5010420;28;20546;-47
2021/04/19 01:09:02;;;;;;;22.83;20.63;;;;;;;;;;5009857;28;20180;-48
2021/04/19 01:11:30;;;;;;;21.97;19.90;;;;;;;;;;5006678;28;20191;-47
2021/04/19 01:13:55;;;;;;;21.13;19.00;;;;;;;;;;5004798;28;20189;-47
2021/04/19 01:16:20;;;;;;;21.87;19.87;;;;;;;;;;4991030;28;20661;-47
2021/04/19 01:18:45;;;;;;;23.37;21.17;;;;;;;;;;4996267;28;20167;-48
2021/04/19 01:21:10;;;;;;;22.90;20.65;;;;;;;;;;5010191;28;20578;-48
2021/04/19 01:23:37;;;;;;;22.60;20.50;;;;;;;;;;4995747;28;20173;-47
2021/04/19 01:26:02;;;;;;;21.23;19.23;;;;;;;;;;5009596;28;20238;-47
2021/04/19 01:28:27;;;;;;;22.97;20.77;;;;;;;;;;5009489;28;21177;-48
2021/04/19 01:30:52;;;;;;;21.65;19.65;;;;;;;;;;5006948;28;20710;-47
2021/04/19 01:33:19;;;;;;;22.97;20.77;;;;;;;;;;5006239;28;20196;-48
2021/04/19 01:35:44;;;;;;;24.47;22.00;;;;;;;;;;5006568;28;20200;-47
2021/04/19 01:38:10;;;;;;;27.93;24.87;;;;;;;;;;5002468;28;20604;-47
2021/04/19 01:40:35;;;;;;;26.33;23.63;;;;;;;;;;4992420;28;20208;-47
2021/04/19 01:43:01;;;;;;;26.17;23.63;;;;;;;;;;5001034;28;20645;-48
2021/04/19 01:45:26;;;;;;;27.53;24.50;;;;;;;;;;5010570;28;20170;-47
2021/04/19 01:47:52;;;;;;;27.47;24.27;;;;;;;;;;5002463;28;20193;-47
2021/04/19 01:50:18;;;;;;;27.70;23.63;;;;;;;;;;4997859;28;20260;-47
2021/04/19 01:52:43;;;;;;;29.30;25.07;;;;;;;;;;5008936;28;21223;-47
2021/04/19 01:55:11;;;;;;;27.53;24.60;;;;;;;;;;5009583;28;20339;-47
2021/04/19 01:57:38;;;;;;;27.90;24.90;;;;;;;;;;5009977;28;20543;-47
2021/04/19 02:00:04;;;;;;;26.07;23.33;;;;;;;;;;5008484;28;20599;-47
2021/04/19 02:02:40;;;;;;;29.43;24.10;;;;;;;;;;5009269;28;20734;-46
2021/04/19 02:05:11;;;;;;;26.30;23.10;;;;;;;;;;5008586;28;20679;-47
2021/04/19 02:07:48;;;;;;;28.10;24.50;;;;;;;;;;4991627;28;20612;-47
2021/04/19 02:10:33;;;;;;;27.60;24.40;;;;;;;;;;4996106;28;21287;-47
2021/04/19 02:13:14;;;;;;;28.73;24.47;;;;;;;;;;5007624;28;20621;-47
2021/04/19 02:15:48;;;;;;;29.97;25.93;;;;;;;;;;5008326;28;20663;-47
2021/04/19 02:18:16;;;;;;;29.90;24.77;;;;;;;;;;5005653;28;20613;-48
2021/04/19 02:20:46;;;;;;;34.37;25.47;;;;;;;;;;5004242;28;20961;-47
2021/04/19 02:23:27;;;;;;;29.50;24.43;;;;;;;;;;5009644;28;20694;-47
2021/04/19 02:25:56;;;;;;;33.80;26.70;;;;;;;;;;5008976;28;20611;-47
2021/04/19 02:28:41;;;;;;;32.57;25.27;;;;;;;;;;5007355;28;22468;-46
2021/04/19 02:31:12;;;;;;;31.93;26.50;;;;;;;;;;4996640;28;21019;-47
2021/04/19 02:33:39;;;;;;;35.00;27.70;;;;;;;;;;5008956;28;21151;-47
2021/04/19 02:36:07;;;;;;;31.93;26.03;;;;;;;;;;5008638;28;20658;-48
2021/04/19 02:38:34;;;;;;;33.30;27.00;;;;;;;;;;5006999;28;20669;-47
2021/04/19 02:41:00;;;;;;;36.40;27.00;;;;;;;;;;5004665;28;21028;-48
2021/04/19 02:43:26;;;;;;;33.73;27.10;;;;;;;;;;5008062;28;20670;-48
2021/04/19 02:45:52;;;;;;;36.27;28.13;;;;;;;;;;5008696;28;20603;-48
2021/04/19 02:48:21;;;;;;;30.60;26.00;;;;;;;;;;5008831;28;20186;-48
2021/04/19 02:50:46;;;;;;;34.43;27.70;;;;;;;;;;5007927;28;20609;-46
2021/04/19 02:53:11;;;;;;;33.57;26.60;;;;;;;;;;5008781;28;20765;-46
2021/04/19 02:55:37;;;;;;;32.10;26.20;;;;;;;;;;5007433;28;20211;-46
2021/04/19 02:58:03;;;;;;;32.67;26.70;;;;;;;;;;5001957;28;20188;-46
2021/04/19 03:00:30;;;;;;;39.30;29.30;;;;;;;;;;4999076;28;20227;-47
2021/04/19 03:02:57;;;;;;;35.57;27.67;;;;;;;;;;5008040;28;20606;-47
2021/04/19 03:05:22;;;;;;;42.47;28.37;;;;;;;;;;5006426;28;20618;-47
2021/04/19 03:07:50;;;;;;;35.78;27.77;;;;;;;;;;5003003;28;20609;-47
2021/04/19 03:10:17;;;;;;;41.00;29.77;;;;;;;;;;4990196;28;20176;-47
2021/04/19 03:12:45;;;;;;;42.43;29.13;;;;;;;;;;5008723;28;20640;-46
2021/04/19 03:15:12;;;;;;;42.60;28.07;;;;;;;;;;5004518;28;20655;-46
2021/04/19 03:17:38;;;;;;;35.40;26.90;;;;;;;;;;4988433;28;20657;-46
2021/04/19 03:20:08;;;;;;;35.90;27.90;;;;;;;;;;4997897;28;21020;-46
2021/04/19 03:22:35;;;;;;;35.33;26.00;;;;;;;;;;5008241;28;20598;-47
2021/04/19 03:25:00;;;;;;;42.00;28.90;;;;;;;;;;5008188;28;20600;-47
2021/04/19 03:27:27;;;;;;;38.13;28.80;;;;;;;;;;5006279;28;20703;-47
2021/04/19 03:29:52;;;;;;;40.33;29.07;;;;;;;;;;4998147;28;20698;-47
2021/04/19 03:32:19;;;;;;;39.37;29.60;;;;;;;;;;5008509;28;20637;-48
2021/04/19 03:34:45;;;;;;;39.17;30.10;;;;;;;;;;5004904;28;20197;-47
2021/04/19 03:37:15;;;;;;;39.87;28.80;;;;;;;;;;4995295;28;20597;-47
2021/04/19 03:39:41;;;;;;;44.63;30.87;;;;;;;;;;4994526;28;20672;-47
2021/04/19 03:42:07;;;;;;;38.30;28.90;;;;;;;;;;5004934;28;20602;-47
2021/04/19 03:44:33;;;;;;;41.83;31.17;;;;;;;;;;5008403;28;20191;-47
2021/04/19 03:47:00;;;;;;;46.67;30.90;;;;;;;;;;5012573;28;20200;-47
2021/04/19 03:49:36;;;;;;;44.10;32.20;;;;;;;;;;5003017;28;20597;-46
2021/04/19 03:52:03;;;;;;;41.60;29.97;;;;;;;;;;5008088;28;20694;-46
2021/04/19 03:54:30;;;;;;;41.47;30.33;;;;;;;;;;5006894;28;20599;-47
2021/04/19 03:56:56;;;;;;;39.63;28.93;;;;;;;;;;5005290;28;20690;-47
2021/04/19 03:59:22;;;;;;;40.60;30.20;;;;;;;;;;5005035;28;21205;-47
2021/04/19 04:01:48;;;;;;;46.10;29.50;;;;;;;;;;5004038;28;20178;-47
2021/04/19 04:04:13;;;;;;;39.73;28.90;;;;;;;;;;5002302;28;20626;-46
2021/04/19 04:06:41;;;;;;;41.30;31.50;;;;;;;;;;5008890;28;20612;-47
2021/04/19 04:09:07;;;;;;;36.23;28.37;;;;;;;;;;5007158;28;20204;-47
2021/04/19 04:11:32;;;;;;;33.70;27.00;;;;;;;;;;5006883;28;20626;-47
2021/04/19 04:13:58;;;;;;;36.67;27.73;;;;;;;;;;5010613;28;21181;-48
2021/04/19 04:16:23;;;;;;;33.72;26.60;;;;;;;;;;5010751;28;20235;-47
2021/04/19 04:18:48;;;;;;;34.27;26.50;;;;;;;;;;5011168;28;20230;-47
2021/04/19 04:21:14;;;;;;;28.45;24.63;;;;;;;;;;5009112;28;20182;-47
2021/04/19 04:23:39;;;;;;;32.77;26.73;;;;;;;;;;5004413;28;20608;-47
2021/04/19 04:26:05;;;;;;;34.63;28.43;;;;;;;;;;4997484;28;20181;-47
2021/04/19 04:28:30;;;;;;;30.03;26.27;;;;;;;;;;5003466;28;20195;-48
2021/04/19 04:30:56;;;;;;;32.80;25.63;;;;;;;;;;5006383;28;20640;-52
2021/04/19 04:33:21;;;;;;;28.30;24.70;;;;;;;;;;5003922;28;20186;-48
2021/04/19 04:35:46;;;;;;;28.87;25.00;;;;;;;;;;4999888;28;20279;-48
2021/04/19 04:38:11;;;;;;;30.53;25.83;;;;;;;;;;5002418;28;20205;-48
2021/04/19 04:40:37;;;;;;;36.60;28.73;;;;;;;;;;4995460;28;20178;-48
2021/04/19 04:43:21;;;;;;;34.23;27.43;;;;;;;;;;5004666;28;20185;-48
2021/04/19 04:45:48;;;;;;;38.07;28.73;;;;;;;;;;4995944;28;20190;-48
2021/04/19 04:48:22;;;;;;;35.97;28.07;;;;;;;;;;5006065;28;20616;-48
2021/04/19 04:50:54;;;;;;;33.37;27.37;;;;;;;;;;5008704;28;20607;-47
2021/04/19 04:53:22;;;;;;;33.80;26.87;;;;;;;;;;5006996;28;20610;-48
2021/04/19 04:55:48;;;;;;;31.73;26.07;;;;;;;;;;5007388;28;20642;-47
2021/04/19 04:58:14;;;;;;;28.97;24.77;;;;;;;;;;4999670;28;20603;-47
2021/04/19 05:00:39;;;;;;;30.83;25.60;;;;;;;;;;4993321;28;20755;-46
2021/04/19 05:03:05;;;;;;;29.67;25.07;;;;;;;;;;4997388;28;20207;-46
2021/04/19 05:05:30;;;;;;;29.60;24.77;;;;;;;;;;4999437;28;20262;-46
2021/04/19 05:07:56;;;;;;;32.53;26.23;;;;;;;;;;5001723;28;20177;-46
2021/04/19 05:10:21;;;;;;;27.87;24.80;;;;;;;;;;5002374;28;20172;-46
2021/04/19 05:12:46;;;;;;;28.53;24.60;;;;;;;;;;5003066;28;20185;-46
2021/04/19 05:15:14;;;;;;;28.83;24.30;;;;;;;;;;5000793;28;20200;-46
2021/04/19 05:17:43;;;;;;;28.73;24.30;;;;;;;;;;4993139;28;20212;-46
2021/04/19 05:20:09;;;;;;;28.77;25.73;;;;;;;;;;5008571;28;20580;-46
2021/04/19 05:22:34;;;;;;;29.50;25.73;;;;;;;;;;5008309;28;20703;-46
2021/04/19 05:25:00;;;;;;;28.50;24.60;;;;;;;;;;5001380;28;20608;-47
2021/04/19 05:27:26;;;;;;;29.40;26.20;;;;;;;;;;4991770;28;20188;-47
2021/04/19 05:29:51;;;;;;;30.10;26.80;;;;;;;;;;5008215;28;20183;-47
2021/04/19 05:32:18;;;;;;;30.53;25.43;;;;;;;;;;5009843;28;20583;-46
2021/04/19 05:34:43;;;;;;;31.50;25.73;;;;;;;;;;5010020;28;20197;-47
2021/04/19 05:37:09;;;;;;;32.13;25.43;;;;;;;;;;5009959;28;20642;-49
2021/04/19 05:39:34;;;;;;;34.97;27.77;;;;;;;;;;5009779;28;20183;-46
2021/04/19 05:42:00;;;;;;;34.83;26.90;;;;;;;;;;5009882;28;20707;-47
2021/04/19 05:44:25;;;;;;;41.97;30.23;;;;;;;;;;5009858;28;20180;-46
2021/04/19 05:46:51;;;;;;;34.83;29.00;;;;;;;;;;5009754;28;21043;-46
2021/04/19 05:49:17;;;;;;;36.43;28.40;;;;;;;;;;5009367;28;20208;-47
2021/04/19 05:51:43;;;;;;;36.00;29.25;;;;;;;;;;5009608;28;20673;-46
2021/04/19 05:54:08;;;;;;;34.70;28.43;;;;;;;;;;5002880;28;20541;-47
2021/04/19 05:56:34;;;;;;;35.73;28.27;;;;;;;;;;5008822;28;20649;-47
2021/04/19 05:59:19;;;;;;;38.50;29.13;;;;;;;;;;4998356;28;20186;-46
2021/04/19 06:01:46;;;;;;;34.90;28.23;;;;;;;;;;5000640;28;20178;-46
2021/04/19 06:04:14;;;;;;;35.40;29.03;;;;;;;;;;5014035;28;20642;-46
2021/04/19 06:06:44;;;;;;;35.23;27.87;;;;;;;;;;5015637;28;20732;-46
2021/04/19 06:09:16;;;;;;;33.37;27.70;;;;;;;;;;5016233;28;20698;-46
2021/04/19 06:11:41;;;;;;;35.13;29.00;;;;;;;;;;5017961;28;21182;-49
2021/04/19 06:14:10;;;;;;;35.43;27.70;;;;;;;;;;5018687;28;20622;-47
2021/04/19 06:16:39;;;;;;;36.10;28.50;;;;;;;;;;5018632;28;20595;-47
2021/04/19 06:19:11;;;;;;;41.13;29.30;;;;;;;;;;5016587;28;20646;-48
2021/04/19 06:21:38;;;;;;;34.50;28.33;;;;;;;;;;5018203;28;20608;-47
2021/04/19 06:24:03;;;;;;;34.70;28.20;;;;;;;;;;5017986;28;20696;-46
2021/04/19 06:26:29;;;;;;;42.00;33.10;;;;;;;;;;5015600;28;20687;-48
2021/04/19 06:28:57;;;;;;;40.77;30.57;;;;;;;;;;5005011;28;20238;-47
2021/04/19 06:31:24;;;;;;;33.20;28.00;;;;;;;;;;5005774;28;20547;-47
2021/04/19 06:33:59;;;;;;;34.87;28.80;;;;;;;;;;5009140;28;20597;-48
2021/04/19 06:36:24;;;;;;;34.50;29.87;;;;;;;;;;5008669;28;20652;-48
2021/04/19 06:38:49;;;;;;;34.70;30.95;;;;;;;;;;5008537;28;20602;-48
2021/04/19 06:41:15;;;;;;;31.70;26.65;;;;;;;;;;5008518;28;20180;-48
2021/04/19 06:43:40;;;;;;;31.67;26.73;;;;;;;;;;5008570;28;20211;-47
2021/04/19 06:46:05;;;;;;;29.67;25.40;;;;;;;;;;5008912;28;20557;-48
2021/04/19 06:48:30;;;;;;;30.70;26.25;;;;;;;;;;5006210;28;20541;-48
2021/04/19 06:50:55;;;;;;;31.08;26.50;;;;;;;;;;5008358;28;20175;-48
2021/04/19 06:53:20;;;;;;;32.07;25.03;;;;;;;;;;5006865;28;20187;-49
2021/04/19 06:55:46;;;;;;;26.92;23.85;;;;;;;;;;5007659;28;20254;-48
2021/04/19 06:58:13;;;;;;;30.83;25.25;;;;;;;;;;5006844;28;20183;-48
2021/04/19 07:00:39;;;;;;;27.70;22.47;;;;;;;;;;5006547;28;20450;-48
2021/04/19 07:03:05;;;;;;;26.70;23.30;;;;;;;;;;5003347;28;20719;-53
2021/04/19 07:05:32;;;;;;;25.93;22.77;;;;;;;;;;5009776;28;20623;-48
2021/04/19 07:08:05;;;;;;;25.47;22.50;;;;;;;;;;5012137;28;21237;-48
2021/04/19 07:10:32;;;;;;;25.20;22.50;;;;;;;;;;5020366;28;20611;-48
2021/04/19 07:12:57;;;;;;;27.20;22.50;;;;;;;;;;5015862;28;20645;-48
2021/04/19 07:15:23;;;;;;;25.53;22.77;;;;;;;;;;5018899;28;20650;-48
2021/04/19 07:17:49;;;;;;;30.80;23.83;;;;;;;;;;5015220;28;20319;-48
2021/04/19 07:20:14;;;;;;;27.93;23.57;;;;;;;;;;5017373;28;21498;-48
2021/04/19 07:22:40;;;;;;;30.37;26.60;;;;;;;;;;5017829;28;20173;-48
2021/04/19 07:25:06;;;;;;;28.33;24.50;;;;;;;;;;5019679;28;20182;-48
2021/04/19 07:27:32;;;;;;;26.20;23.40;;;;;;;;;;5016739;28;20203;-48
2021/04/19 07:29:57;;;;;;;26.40;23.53;;;;;;;;;;5007245;28;20608;-49
2021/04/19 07:32:36;;;;;;;29.10;25.90;;;;;;;;;;5007821;28;20581;-48
2021/04/19 07:35:02;;;;;;;30.50;24.50;;;;;;;;;;5007475;28;20192;-48
2021/04/19 07:37:28;;;;;;;28.73;25.63;;;;;;;;;;5007327;28;20584;-48
2021/04/19 07:39:55;;;;;;;27.03;24.13;;;;;;;;;;5007603;28;20599;-48
2021/04/19 07:42:20;;;;;;;28.20;24.50;;;;;;;;;;5007512;28;20577;-48
2021/04/19 07:44:47;;;;;;;28.13;25.13;;;;;;;;;;5007669;28;20602;-49
2021/04/19 07:47:22;;;;;;;26.87;24.07;;;;;;;;;;5006909;28;20173;-48
2021/04/19 07:50:14;;;;;;;28.30;25.33;;;;;;;;;;5007355;28;20606;-48
2021/04/19 07:52:58;;;;;;;29.30;25.23;;;;;;;;;;5004484;28;21182;-48
2021/04/19 07:55:27;;;;;;;31.67;24.83;;;;;;;;;;5007314;28;21042;-48
2021/04/19 07:57:52;;;;;;;29.77;26.13;;;;;;;;;;5007609;28;20584;-48
2021/04/19 08:00:25;;;;;;;29.30;25.97;;;;;;;;;;5007070;28;20603;-49
2021/04/19 08:02:57;;;;;;;27.70;25.00;;;;;;;;;;5007101;28;20202;-48
2021/04/19 08:05:29;;;;;;;29.47;26.40;;;;;;;;;;5007238;28;20588;-48
2021/04/19 08:07:54;;;;;;;30.80;25.83;;;;;;;;;;5006759;28;20605;-47
2021/04/19 08:10:20;;;;;;;29.27;26.07;;;;;;;;;;5007318;28;20596;-47
2021/04/19 08:12:46;;;;;;;31.27;27.80;;;;;;;;;;5007063;28;20177;-47
2021/04/19 08:15:12;;;;;;;29.60;26.40;;;;;;;;;;5006539;28;21144;-47
2021/04/19 08:17:38;;;;;;;30.17;26.87;;;;;;;;;;5007027;28;20232;-47
2021/04/19 08:20:08;;;;;;;29.50;26.50;;;;;;;;;;5007469;28;20609;-47
2021/04/19 08:22:33;;;;;;;29.80;26.40;;;;;;;;;;5007219;28;20176;-47
2021/04/19 08:25:09;;;;;;;30.23;26.53;;;;;;;;;;5007608;28;20677;-47
2021/04/19 08:27:35;;;;;;;29.60;26.40;;;;;;;;;;5007338;28;20197;-47
2021/04/19 08:30:00;;;;;;;31.97;27.63;;;;;;;;;;5006938;28;21137;-47
2021/04/19 08:32:29;;;;;;;29.10;26.07;;;;;;;;;;5010934;28;20192;-47
2021/04/19 08:34:54;;;;;;;32.17;28.80;;;;;;;;;;5011201;28;20232;-47
2021/04/19 08:37:20;;;;;;;28.80;25.90;;;;;;;;;;5010792;28;20977;-47
2021/04/19 08:39:46;;;;;;;28.93;25.83;;;;;;;;;;5010657;28;20169;-47
2021/04/19 08:42:12;;;;;;;28.13;25.27;;;;;;;;;;5010590;28;20588;-47
2021/04/19 08:44:39;;;;;;;29.47;25.17;;;;;;;;;;5010682;28;20679;-47
2021/04/19 08:47:04;;;;;;;27.43;24.53;;;;;;;;;;5010812;28;20592;-47
2021/04/19 08:49:30;;;;;;;29.53;26.33;;;;;;;;;;5010569;28;20602;-47
2021/04/19 08:51:55;;;;;;;31.20;26.47;;;;;;;;;;5011290;28;20178;-47
2021/04/19 08:54:21;;;;;;;29.57;26.57;;;;;;;;;;5010406;28;20175;-47
2021/04/19 08:56:46;;;;;;;27.20;24.40;;;;;;;;;;5010542;28;20297;-47
2021/04/19 08:59:11;;;;;;;25.83;23.37;;;;;;;;;;5010427;28;20197;-47
2021/04/19 09:01:36;;;;;;;26.30;23.50;;;;;;;;;;5010662;28;20551;-47
2021/04/19 09:04:03;;;;;;;27.77;24.87;;;;;;;;;;5010717;28;20221;-47
2021/04/19 09:06:38;;;;;;;29.40;26.30;;;;;;;;;;5010624;28;20270;-46
2021/04/19 09:09:04;;;;;;;26.67;23.50;;;;;;;;;;5010487;28;20600;-47
2021/04/19 09:11:29;;;;;;;28.37;25.43;;;;;;;;;;5013288;28;20992;-47
2021/04/19 09:14:09;;;;;;;27.40;24.70;;;;;;;;;;5018512;28;20191;-47
2021/04/19 09:16:36;;;;;;;27.70;24.83;;;;;;;;;;5027603;28;20647;-47
2021/04/19 09:19:02;;;;;;;27.50;24.77;;;;;;;;;;5014396;28;20981;-47
2021/04/19 09:21:44;;;;;;;27.33;24.23;;;;;;;;;;5010115;28;20606;-47
2021/04/19 09:24:10;;;;;;;25.27;22.57;;;;;;;;;;5010510;28;20171;-47
2021/04/19 09:26:43;;;;;;;25.10;22.70;;;;;;;;;;5010064;28;20585;-47
2021/04/19 09:29:08;;;;;;;25.97;23.33;;;;;;;;;;5010203;28;20688;-47
2021/04/19 09:31:52;;;;;;;26.90;24.10;;;;;;;;;;5010119;28;20644;-47
2021/04/19 09:34:17;;;;;;;27.60;24.80;;;;;;;;;;5010217;28;20273;-47
2021/04/19 09:36:49;;;;;;;25.58;22.98;;;;;;;;;;5009917;28;20695;-46
2021/04/19 09:39:34;;;;;;;28.03;25.10;;;;;;;;;;5010062;28;20251;-48
2021/04/19 09:41:59;;;;;;;24.80;22.20;;;;;;;;;;5009321;28;20605;-48
2021/04/19 09:44:25;;;;;;;28.00;25.10;;;;;;;;;;5009902;28;20626;-47
2021/04/19 09:46:53;;;;;;;27.03;24.17;;;;;;;;;;5009401;28;20188;-51
2021/04/19 09:49:20;;;;;;;28.27;25.47;;;;;;;;;;5009897;28;20185;-48
2021/04/19 09:51:45;;;;;;;29.27;25.30;;;;;;;;;;5009860;28;20724;-47
2021/04/19 09:54:15;;;;;;;28.60;25.60;;;;;;;;;;5009141;28;21201;-47
2021/04/19 09:56:50;;;;;;;27.43;24.63;;;;;;;;;;5009114;28;20264;-47
2021/04/19 09:59:16;;;;;;;27.30;24.40;;;;;;;;;;5009848;28;20595;-47
2021/04/19 10:01:44;;;;;;;28.57;25.63;;;;;;;;;;5007969;28;20595;-47
2021/04/19 10:04:09;;;;;;;27.33;24.00;;;;;;;;;;5009411;28;20776;-48
2021/04/19 10:06:46;;;;;;;30.10;26.83;;;;;;;;;;5009222;28;20636;-47
2021/04/19 10:09:12;;;;;;;28.23;25.20;;;;;;;;;;5009344;28;20189;-47
2021/04/19 10:11:44;;;;;;;28.57;24.67;;;;;;;;;;5009180;28;20608;-48
2021/04/19 10:14:11;;;;;;;24.67;22.17;;;;;;;;;;5009272;28;20908;-48
2021/04/19 10:16:49;;;;;;;27.47;23.40;;;;;;;;;;5008806;28;20675;-48
2021/04/19 10:19:25;;;;;;;26.27;23.57;;;;;;;;;;5009760;28;20714;-48
2021/04/19 10:22:00;;;;;;;24.17;21.67;;;;;;;;;;5009291;28;20586;-48
2021/04/19 10:24:26;;;;;;;25.87;21.47;;;;;;;;;;5008969;28;20606;-48
2021/04/19 10:26:51;;;;;;;22.77;20.37;;;;;;;;;;5008788;28;20580;-48
2021/04/19 10:29:18;;;;;;;24.52;21.92;;;;;;;;;;5009143;28;20210;-48
2021/04/19 10:31:47;;;;;;;23.03;20.67;;;;;;;;;;5009148;28;20185;-48
2021/04/19 10:34:12;;;;;;;23.97;21.47;;;;;;;;;;5009390;28;20570;-48
2021/04/19 10:36:44;;;;;;;22.53;20.13;;;;;;;;;;5008554;28;21092;-48
2021/04/19 10:39:11;;;;;;;22.83;20.50;;;;;;;;;;5008897;28;20261;-48
2021/04/19 10:41:36;;;;;;;22.60;20.30;;;;;;;;;;5008761;28;20934;-48
2021/04/19 10:44:05;;;;;;;20.80;18.60;;;;;;;;;;5008734;28;20583;-48
2021/04/19 10:46:31;;;;;;;21.63;19.43;;;;;;;;;;5008565;28;20188;-49
2021/04/19 10:48:59;;;;;;;23.30;21.07;;;;;;;;;;5008685;28;20625;-48
2021/04/19 10:51:25;;;;;;;24.97;22.37;;;;;;;;;;5026613;28;21282;-48
2021/04/19 10:53:51;;;;;;;22.43;20.10;;;;;;;;;;5016338;28;20641;-48
2021/04/19 10:56:26;;;;;;;23.60;21.30;;;;;;;;;;5008189;28;20687;-48
2021/04/19 10:58:53;;;;;;;24.03;21.63;;;;;;;;;;5008227;28;20606;-48
2021/04/19 11:01:22;;;;;;;22.37;20.03;;;;;;;;;;5007593;28;21340;-48
2021/04/19 11:03:48;;;;;;;22.23;19.93;;;;;;;;;;5008005;28;20586;-48
2021/04/19 11:06:15;;;;;;;21.43;19.40;;;;;;;;;;5008258;28;20576;-49
2021/04/19 11:08:49;;;;;;;22.03;19.83;;;;;;;;;;5008162;28;20216;-49
2021/04/19 11:11:21;;;;;;;24.00;20.60;;;;;;;;;;5008154;28;20941;-49
2021/04/19 11:13:46;;;;;;;22.70;20.40;;;;;;;;;;5007273;28;20696;-48
2021/04/19 11:16:18;;;;;;;20.97;18.97;;;;;;;;;;5007571;28;20778;-48
2021/04/19 11:18:44;;;;;;;20.40;18.40;;;;;;;;;;5008327;28;20658;-48
2021/04/19 11:21:09;;;;;;;21.57;19.40;;;;;;;;;;5008658;28;20576;-47
2021/04/19 11:23:36;;;;;;;23.90;21.30;;;;;;;;;;5007723;28;20600;-48
2021/04/19 11:26:02;;;;;;;23.53;21.23;;;;;;;;;;5008273;28;20182;-48
2021/04/19 11:28:38;;;;;;;22.57;20.33;;;;;;;;;;5008133;28;20599;-48
2021/04/19 11:31:11;;;;;;;21.57;19.40;;;;;;;;;;5008214;28;20636;-48
2021/04/19 11:33:36;;;;;;;24.90;22.40;;;;;;;;;;5007510;28;20608;-47
2021/04/19 11:36:02;;;;;;;23.27;20.95;;;;;;;;;;5008186;28;20665;-47
2021/04/19 11:38:28;;;;;;;22.73;20.40;;;;;;;;;;5008108;28;20182;-48
2021/04/19 11:41:13;;;;;;;22.50;19.43;;;;;;;;;;5007928;28;21198;-48
2021/04/19 11:43:47;;;;;;;21.67;19.37;;;;;;;;;;5007145;28;20267;-49
2021/04/19 11:46:13;;;;;;;21.13;18.93;;;;;;;;;;5008205;28;20608;-49
2021/04/19 11:48:41;;;;;;;21.67;19.60;;;;;;;;;;5007808;28;20591;-49
2021/04/19 11:51:08;;;;;;;21.33;19.10;;;;;;;;;;5008115;28;21121;-48
2021/04/19 11:53:34;;;;;;;18.47;16.57;;;;;;;;;;5007505;28;21351;-49
2021/04/19 11:56:00;;;;;;;19.07;17.17;;;;;;;;;;5007840;28;20648;-48
2021/04/19 11:58:25;;;;;;;22.37;20.10;;;;;;;;;;5008023;28;20947;-48
2021/04/19 12:00:52;;;;;;;20.53;18.53;;;;;;;;;;5007874;28;20749;-48
2021/04/19 12:03:18;;;;;;;21.30;19.10;;;;;;;;;;5007535;28;20234;-48
2021/04/19 12:05:43;;;;;;;23.80;20.77;;;;;;;;;;5009081;28;20591;-48
2021/04/19 12:08:09;;;;;;;22.90;20.50;;;;;;;;;;5011471;28;20605;-48
2021/04/19 12:10:35;;;;;;;22.20;20.10;;;;;;;;;;5011508;28;20180;-48
2021/04/19 12:13:00;;;;;;;21.90;19.70;;;;;;;;;;5011455;28;20628;-48
2021/04/19 12:15:25;;;;;;;23.35;21.00;;;;;;;;;;5011446;28;20198;-48
2021/04/19 12:17:50;;;;;;;20.20;18.20;;;;;;;;;;5011234;28;20225;-48
2021/04/19 12:20:15;;;;;;;20.63;18.57;;;;;;;;;;5011598;28;20177;-48
2021/04/19 12:22:41;;;;;;;20.90;18.60;;;;;;;;;;5011022;28;20171;-49
2021/04/19 12:25:06;;;;;;;20.80;18.70;;;;;;;;;;5011479;28;20174;-49
2021/04/19 12:27:31;;;;;;;19.50;17.47;;;;;;;;;;5011157;28;20194;-48
2021/04/19 12:29:57;;;;;;;19.27;17.37;;;;;;;;;;5009871;28;20203;-48
2021/04/19 12:32:22;;;;;;;19.45;17.70;;;;;;;;;;5011212;28;20175;-48
2021/04/19 12:34:47;;;;;;;19.47;17.70;;;;;;;;;;5011086;28;20181;-49
2021/04/19 12:37:13;;;;;;;19.30;17.40;;;;;;;;;;5011401;28;20165;-48
2021/04/19 12:39:38;;;;;;;18.13;16.33;;;;;;;;;;5010638;28;20640;-48
2021/04/19 12:42:03;;;;;;;19.57;17.60;;;;;;;;;;5010987;28;20733;-48
2021/04/19 12:44:29;;;;;;;18.10;16.40;;;;;;;;;;5011435;28;20171;-48
2021/04/19 12:46:55;;;;;;;20.37;18.43;;;;;;;;;;5010774;28;20274;-48
2021/04/19 12:49:21;;;;;;;20.40;18.30;;;;;;;;;;5007221;28;20723;-48
2021/04/19 12:51:46;;;;;;;20.83;18.80;;;;;;;;;;5007143;28;20177;-48
2021/04/19 12:54:12;;;;;;;18.63;16.73;;;;;;;;;;5010402;28;20980;-49
2021/04/19 12:56:37;;;;;;;20.53;18.57;;;;;;;;;;5010242;28;20433;-48
2021/04/19 12:59:03;;;;;;;20.80;18.60;;;;;;;;;;5009966;28;20172;-48
2021/04/19 13:01:28;;;;;;;19.08;17.35;;;;;;;;;;5010562;28;20177;-48
2021/04/19 13:03:53;;;;;;;18.17;16.38;;;;;;;;;;5010371;28;20204;-48
2021/04/19 13:06:18;;;;;;;19.37;17.47;;;;;;;;;;5010359;28;20246;-48
2021/04/19 13:08:43;;;;;;;17.83;16.03;;;;;;;;;;5009432;28;20265;-48
2021/04/19 13:11:08;;;;;;;18.80;17.00;;;;;;;;;;5010201;28;20217;-48
2021/04/19 13:13:34;;;;;;;21.73;19.52;;;;;;;;;;5010376;28;20172;-50
2021/04/19 13:15:59;;;;;;;21.37;19.10;;;;;;;;;;5010130;28;20239;-49
2021/04/19 13:18:24;;;;;;;20.95;18.85;;;;;;;;;;5009176;28;20170;-48
2021/04/19 13:20:50;;;;;;;19.40;17.50;;;;;;;;;;5010839;28;20187;-48
2021/04/19 13:23:15;;;;;;;19.90;17.95;;;;;;;;;;5010247;28;20561;-48
2021/04/19 13:25:40;;;;;;;21.37;19.30;;;;;;;;;;5008231;28;20592;-48
2021/04/19 13:28:05;;;;;;;19.50;17.67;;;;;;;;;;5010410;28;20649;-49
2021/04/19 13:30:32;;;;;;;19.95;17.85;;;;;;;;;;5009927;28;20181;-48
2021/04/19 13:32:57;;;;;;;20.37;18.23;;;;;;;;;;5010055;28;20185;-49
2021/04/19 13:35:22;;;;;;;23.23;20.77;;;;;;;;;;5010109;28;20964;-48
2021/04/19 13:37:48;;;;;;;23.43;21.00;;;;;;;;;;5009801;28;20179;-49
2021/04/19 13:40:14;;;;;;;22.77;20.30;;;;;;;;;;5010064;28;20176;-49
2021/04/19 13:42:40;;;;;;;20.60;18.53;;;;;;;;;;5009947;28;20187;-49
2021/04/19 13:45:10;;;;;;;23.00;20.70;;;;;;;;;;4990902;28;20588;-49
2021/04/19 13:47:36;;;;;;;25.40;22.57;;;;;;;;;;4990441;28;20224;-51
2021/04/19 13:50:01;;;;;;;23.20;20.90;;;;;;;;;;4990277;28;20592;-49
2021/04/19 13:52:27;;;;;;;23.03;20.73;;;;;;;;;;4990255;28;20183;-49
2021/04/19 13:54:53;;;;;;;23.50;21.10;;;;;;;;;;5009498;28;20715;-48
2021/04/19 13:57:18;;;;;;;22.93;20.53;;;;;;;;;;5004097;28;20215;-49
2021/04/19 13:59:43;;;;;;;20.20;18.27;;;;;;;;;;4992122;28;20606;-47
2021/04/19 14:02:08;;;;;;;23.80;21.13;;;;;;;;;;5006322;28;20192;-47
2021/04/19 14:04:33;;;;;;;20.17;18.13;;;;;;;;;;5003966;28;20184;-47
2021/04/19 14:06:59;;;;;;;22.17;19.98;;;;;;;;;;5005158;28;20785;-47
2021/04/19 14:09:24;;;;;;;23.03;20.70;;;;;;;;;;5006381;28;20188;-47
2021/04/19 14:11:49;;;;;;;20.92;18.73;;;;;;;;;;5006257;28;20321;-47
2021/04/19 14:14:14;;;;;;;22.38;20.23;;;;;;;;;;5006061;28;20181;-47
2021/04/19 14:16:39;;;;;;;19.92;18.02;;;;;;;;;;5005409;28;20233;-47